Terminal Aerodrome Forecast
Issued by NWS Pocatello, ID

Home | Current Version | Previous Version | Text Only | Print | Product List | Glossary On
Versions: 1 2 3 4 5 6 7 8 9 10 11 12 13 14 15 16 17
000
FTUS45 KPIH 181700
TAFBYI
TAF
KBYI 181723Z 1818/1918 VRB03KT P6SM FEW060
     FM182100 22008KT P6SM FEW050 BKN070
     FM190500 17006KT P6SM BKN050 BKN070=

USA.gov is the U.S. government's official web portal to all federal, state and local government web resources and services.